Costa Sacate, Argentina
Current Conditions -  °F | °C
As of 10:00 AM on Thursday 18 Dec 2014 (Local Time) from SACO Reporting Station
Broken Clouds Broken Clouds  
Wind Chill: 75°   Ceiling: 10000
Heat Index: 75°   Visibility: 6mi
Dew Point: 57°   Wind: 5mph
Humidity: 53%   Direction: 360°N
Pressure: 30.03"   Gusts: NA
Location:  31.65°S, 63.77°W
Report Text: SACO 181300Z 36004KT 9999 FEW025 BKN10024/14 Q1017
Loading
Personal Weather Stations






























Interactive Weather Map New forecast layout! Learn more

10-Day Weather Forecast

Advertisements
Track Severe Weather on mobile